Time;durP1;ratioP1;P1;durP2;ratioP2;P2;SDS_P1;SDS_P2;PMS_P1;PMS_P2;Temp;Humidity;BMP_temperature;BMP_pressure;BME280_temperature;BME280_humidity;BME280_pressure;Samples;Min_cycle;Max_cycle;Signal;HPM_P1;HPM_P2
2021/12/23 00:00:36;;;;;;;21.97;12.83;;;0.40;99.90;;;;;;4993717;28;20429;-80
2021/12/23 00:03:03;;;;;;;22.80;12.60;;;0.40;99.90;;;;;;4993796;28;20424;-80
2021/12/23 00:05:29;;;;;;;19.90;12.10;;;0.40;99.90;;;;;;4994806;28;20424;-80
2021/12/23 00:07:55;;;;;;;22.37;11.73;;;0.50;99.90;;;;;;4994802;28;20425;-79
2021/12/23 00:10:21;;;;;;;16.50;12.00;;;0.40;99.90;;;;;;4993366;28;20476;-81
2021/12/23 00:12:47;;;;;;;19.37;11.70;;;0.40;99.90;;;;;;4994685;28;20623;-80
2021/12/23 00:15:22;;;;;;;23.37;12.40;;;0.50;99.90;;;;;;4993229;28;20440;-79
2021/12/23 00:23:25;;;;;;;24.20;12.73;;;0.50;99.90;;;;;;5015316;28;20419;-80
2021/12/23 00:25:53;;;;;;;18.60;12.33;;;0.50;99.90;;;;;;5013847;28;20679;-81
2021/12/23 00:28:21;;;;;;;17.37;12.13;;;0.50;99.90;;;;;;5013646;28;20482;-81
2021/12/23 00:30:47;;;;;;;19.10;11.80;;;0.50;99.90;;;;;;5013206;28;20436;-81
2021/12/23 00:33:12;;;;;;;17.73;10.90;;;0.50;99.90;;;;;;5013397;28;20527;-81
2021/12/23 00:35:38;;;;;;;16.27;11.10;;;0.40;99.90;;;;;;5013531;28;20511;-80
2021/12/23 00:38:12;;;;;;;20.20;12.50;;;0.50;99.90;;;;;;5013223;28;20254;-81
2021/12/23 00:40:38;;;;;;;20.37;12.23;;;0.50;99.90;;;;;;5012056;28;20200;-81
2021/12/23 00:43:03;;;;;;;20.53;12.23;;;0.50;99.90;;;;;;5013462;28;20409;-81
2021/12/23 00:45:29;;;;;;;19.33;12.43;;;0.40;99.90;;;;;;5013037;28;20659;-82
2021/12/23 00:47:55;;;;;;;21.30;12.10;;;0.40;99.90;;;;;;5014740;28;20244;-80
2021/12/23 00:50:21;;;;;;;21.50;12.30;;;0.40;99.90;;;;;;5014137;28;20241;-80
2021/12/23 00:52:54;;;;;;;19.47;11.43;;;0.40;99.90;;;;;;5012815;28;20178;-81
2021/12/23 00:55:20;;;;;;;20.30;12.30;;;0.40;99.90;;;;;;5014146;28;20407;-81
2021/12/23 00:57:46;;;;;;;21.63;12.43;;;0.40;99.90;;;;;;5014328;28;20789;-81
2021/12/23 01:00:15;;;;;;;22.80;12.70;;;0.30;99.90;;;;;;5012461;28;20193;-81
2021/12/23 01:02:44;;;;;;;20.30;12.50;;;0.30;99.90;;;;;;5012796;28;20189;-81
2021/12/23 01:05:10;;;;;;;29.33;13.87;;;0.30;99.90;;;;;;5012887;28;20420;-81
2021/12/23 01:07:36;;;;;;;21.17;12.50;;;0.30;99.90;;;;;;5012599;28;20416;-82
2021/12/23 01:10:03;;;;;;;23.80;14.10;;;0.30;99.90;;;;;;5012595;28;20443;-81
2021/12/23 01:12:35;;;;;;;17.90;11.83;;;0.30;99.90;;;;;;5012296;28;20184;-81
2021/12/23 01:18:14;;;;;;;21.37;11.90;;;0.30;99.90;;;;;;4990853;28;20499;-81
2021/12/23 01:20:51;;;;;;;21.80;13.43;;;0.30;99.90;;;;;;5008746;28;20470;-81
2021/12/23 01:23:23;;;;;;;18.57;12.23;;;0.30;99.90;;;;;;5012681;28;20412;-81
2021/12/23 01:25:50;;;;;;;18.87;11.77;;;0.30;99.90;;;;;;5013592;28;20743;-81
2021/12/23 01:28:16;;;;;;;25.57;12.90;;;0.30;99.90;;;;;;5013641;28;20412;-81
2021/12/23 01:30:42;;;;;;;20.07;12.00;;;0.30;99.90;;;;;;5011764;28;20490;-81
2021/12/23 01:33:09;;;;;;;18.87;11.80;;;0.40;99.90;;;;;;5012169;28;20451;-80
2021/12/23 01:35:35;;;;;;;19.73;12.03;;;0.40;99.90;;;;;;5012408;28;20187;-80
2021/12/23 01:38:01;;;;;;;19.97;13.30;;;0.30;99.90;;;;;;5012219;28;20982;-80
2021/12/23 01:40:28;;;;;;;21.33;12.27;;;0.30;99.90;;;;;;5012482;28;20447;-80
2021/12/23 01:42:55;;;;;;;18.17;12.40;;;0.30;99.90;;;;;;5012321;28;20557;-81
2021/12/23 01:45:26;;;;;;;21.97;12.50;;;0.30;99.90;;;;;;5012556;28;20490;-81
2021/12/23 01:47:52;;;;;;;21.17;11.60;;;0.30;99.90;;;;;;5012223;28;20412;-80
2021/12/23 01:50:20;;;;;;;18.50;12.20;;;0.30;99.90;;;;;;5011846;28;20982;-81
2021/12/23 01:52:46;;;;;;;20.53;12.90;;;0.30;99.90;;;;;;5011723;28;20177;-80
2021/12/23 01:55:12;;;;;;;20.13;12.07;;;0.30;99.90;;;;;;5013302;28;20412;-81
2021/12/23 01:57:41;;;;;;;23.30;12.53;;;0.30;99.90;;;;;;5013429;28;20180;-82
2021/12/23 02:00:14;;;;;;;21.90;13.47;;;0.30;99.90;;;;;;5028343;28;20440;-80
2021/12/23 02:02:41;;;;;;;21.50;12.83;;;0.30;99.90;;;;;;5012112;28;20507;-80
2021/12/23 02:05:08;;;;;;;24.10;13.77;;;0.30;99.90;;;;;;5011945;28;20488;-80
2021/12/23 02:07:34;;;;;;;19.73;12.13;;;0.30;99.90;;;;;;5011867;28;20427;-80
2021/12/23 02:10:00;;;;;;;17.50;12.30;;;0.30;99.90;;;;;;5011887;28;20471;-81
2021/12/23 02:12:27;;;;;;;19.53;12.67;;;0.30;99.90;;;;;;5013329;28;20937;-81
2021/12/23 02:14:52;;;;;;;24.07;12.33;;;0.30;99.90;;;;;;5012168;28;20416;-81
2021/12/23 02:17:18;;;;;;;25.00;13.47;;;0.40;99.90;;;;;;5011766;28;20420;-81
2021/12/23 02:19:44;;;;;;;20.70;12.43;;;0.40;99.90;;;;;;5011301;28;20672;-82
2021/12/23 02:22:09;;;;;;;24.50;13.50;;;0.40;99.90;;;;;;5012451;28;20177;-80
2021/12/23 02:24:36;;;;;;;22.87;12.47;;;0.40;99.90;;;;;;5013003;28;20186;-80
2021/12/23 02:27:02;;;;;;;17.00;11.20;;;0.50;99.90;;;;;;5011195;28;20188;-81
2021/12/23 02:29:27;;;;;;;17.93;12.67;;;0.50;99.90;;;;;;5011035;28;20439;-80
2021/12/23 02:31:53;;;;;;;23.80;12.27;;;0.60;99.90;;;;;;5012495;28;20185;-79
2021/12/23 02:34:21;;;;;;;26.33;13.23;;;0.60;99.90;;;;;;5012690;28;20695;-81
2021/12/23 02:36:51;;;;;;;25.57;13.43;;;0.60;99.90;;;;;;5011319;28;20424;-80
2021/12/23 02:39:18;;;;;;;21.80;12.53;;;0.70;99.90;;;;;;5011078;28;20897;-80
2021/12/23 02:41:43;;;;;;;22.47;12.20;;;0.70;99.90;;;;;;5027802;28;20795;-80
2021/12/23 02:44:09;;;;;;;21.90;12.27;;;0.70;99.90;;;;;;5012944;28;20416;-80
2021/12/23 02:46:35;;;;;;;25.13;14.00;;;0.70;99.90;;;;;;5011329;28;20223;-81
2021/12/23 02:49:02;;;;;;;17.20;11.03;;;0.70;99.90;;;;;;5012120;28;20213;-80
2021/12/23 02:51:28;;;;;;;22.00;12.30;;;0.60;99.90;;;;;;5011015;28;20943;-81
2021/12/23 02:53:54;;;;;;;20.27;12.47;;;0.60;99.90;;;;;;5012173;28;20424;-80
2021/12/23 02:56:21;;;;;;;18.90;11.60;;;0.60;99.90;;;;;;5011012;28;20698;-80
2021/12/23 02:58:47;;;;;;;27.40;14.33;;;0.60;99.90;;;;;;5012196;28;20205;-80
2021/12/23 03:01:15;;;;;;;23.00;12.87;;;0.60;99.90;;;;;;5011699;28;20436;-80
2021/12/23 03:03:42;;;;;;;23.90;13.40;;;0.60;99.90;;;;;;5012144;28;20175;-80
2021/12/23 03:06:09;;;;;;;23.67;13.77;;;0.70;99.90;;;;;;5015337;28;20763;-81
2021/12/23 03:08:41;;;;;;;22.80;14.00;;;0.70;99.90;;;;;;5015619;28;20419;-81
2021/12/23 03:11:08;;;;;;;19.40;13.50;;;0.70;99.90;;;;;;5013735;28;20815;-80
2021/12/23 03:13:34;;;;;;;20.93;13.70;;;0.70;99.90;;;;;;5015380;28;20510;-80
2021/12/23 03:16:00;;;;;;;22.70;13.67;;;0.80;99.90;;;;;;5017087;28;20466;-82
2021/12/23 03:18:26;;;;;;;20.20;13.10;;;0.80;99.90;;;;;;5017237;28;20459;-82
2021/12/23 03:20:53;;;;;;;18.80;12.73;;;0.90;99.90;;;;;;5014807;28;20217;-81
2021/12/23 03:23:19;;;;;;;21.57;13.90;;;0.90;99.90;;;;;;5015713;28;20443;-81
2021/12/23 03:25:44;;;;;;;18.83;12.70;;;0.80;99.90;;;;;;5016546;28;20921;-83
2021/12/23 03:28:11;;;;;;;18.10;11.47;;;0.80;99.90;;;;;;5017165;28;20428;-83
2021/12/23 03:30:38;;;;;;;17.90;12.23;;;0.70;99.90;;;;;;5016114;28;20212;-82
2021/12/23 03:33:04;;;;;;;23.43;13.60;;;0.60;99.90;;;;;;5016238;28;20424;-81
2021/12/23 03:35:29;;;;;;;21.37;14.00;;;0.60;99.90;;;;;;5017712;28;20427;-82
2021/12/23 03:37:55;;;;;;;19.33;11.93;;;0.60;99.90;;;;;;5016179;28;20514;-81
2021/12/23 03:40:21;;;;;;;16.60;13.07;;;0.60;99.90;;;;;;5016097;28;20695;-82
2021/12/23 03:42:47;;;;;;;19.40;12.03;;;0.70;99.90;;;;;;5017530;28;20599;-81
2021/12/23 03:45:13;;;;;;;24.73;14.07;;;0.70;99.90;;;;;;5015684;28;20454;-82
2021/12/23 03:47:39;;;;;;;23.70;13.67;;;0.80;99.90;;;;;;5016922;28;20184;-82
2021/12/23 03:50:07;;;;;;;20.10;13.27;;;0.80;99.90;;;;;;5016915;28;20312;-82
2021/12/23 03:52:33;;;;;;;22.73;13.97;;;0.80;99.90;;;;;;5015529;28;20456;-82
2021/12/23 03:54:59;;;;;;;23.10;13.90;;;0.80;99.90;;;;;;5015776;28;20911;-82
2021/12/23 03:57:25;;;;;;;21.20;12.73;;;0.80;99.90;;;;;;5016702;28;20965;-81
2021/12/23 03:59:51;;;;;;;24.87;14.47;;;0.80;99.90;;;;;;5014954;28;20468;-82
2021/12/23 04:02:17;;;;;;;23.43;13.17;;;0.80;99.90;;;;;;5015119;28;20181;-82
2021/12/23 04:04:42;;;;;;;22.30;13.00;;;0.80;99.90;;;;;;5017089;28;20223;-81
2021/12/23 04:07:08;;;;;;;26.17;12.30;;;0.90;99.90;;;;;;5015740;28;20424;-81
2021/12/23 04:09:34;;;;;;;22.43;14.90;;;0.90;99.90;;;;;;5016006;28;20200;-82
2021/12/23 04:11:59;;;;;;;26.13;13.37;;;0.90;99.90;;;;;;5015380;28;20285;-83
2021/12/23 04:14:25;;;;;;;21.27;12.50;;;0.90;99.90;;;;;;5014978;28;20292;-81
2021/12/23 04:16:50;;;;;;;21.40;13.17;;;0.90;99.90;;;;;;5016116;28;20276;-81
2021/12/23 04:19:16;;;;;;;21.33;13.53;;;0.80;99.90;;;;;;5014202;28;20218;-81
2021/12/23 04:21:42;;;;;;;20.83;13.40;;;0.90;99.90;;;;;;5015706;28;20539;-82
2021/12/23 04:24:09;;;;;;;25.23;17.50;;;0.90;99.90;;;;;;5016190;28;20181;-81
2021/12/23 04:26:37;;;;;;;19.70;14.30;;;0.90;99.90;;;;;;5014262;28;20427;-82
2021/12/23 04:29:04;;;;;;;25.20;15.63;;;0.90;99.90;;;;;;5014107;28;20430;-81
2021/12/23 04:31:30;;;;;;;25.17;14.67;;;0.90;99.90;;;;;;5014161;28;20996;-81
2021/12/23 04:33:55;;;;;;;21.10;13.47;;;0.90;99.90;;;;;;5014578;28;20447;-82
2021/12/23 04:36:23;;;;;;;20.93;15.33;;;0.90;99.90;;;;;;5015350;28;20196;-82
2021/12/23 04:38:49;;;;;;;27.10;14.50;;;1.00;99.90;;;;;;5015618;28;20580;-81
2021/12/23 04:41:15;;;;;;;20.20;12.23;;;1.00;99.90;;;;;;5014115;28;20428;-81
2021/12/23 04:43:41;;;;;;;25.30;15.23;;;1.00;99.90;;;;;;5030370;28;20188;-81
2021/12/23 04:46:07;;;;;;;21.83;13.67;;;0.90;99.90;;;;;;5015482;28;20711;-83
2021/12/23 04:48:33;;;;;;;24.80;13.83;;;0.90;99.90;;;;;;5015296;28;20907;-82
2021/12/23 04:50:59;;;;;;;23.93;14.10;;;0.80;99.90;;;;;;5013421;28;20472;-81
2021/12/23 04:53:25;;;;;;;23.17;13.60;;;0.80;99.90;;;;;;5029984;28;20416;-82
2021/12/23 04:55:51;;;;;;;23.47;13.50;;;0.80;99.90;;;;;;5013781;28;20487;-81
2021/12/23 04:58:17;;;;;;;24.10;12.87;;;0.80;99.90;;;;;;5013665;28;20456;-81
2021/12/23 05:00:49;;;;;;;22.93;14.53;;;0.80;99.90;;;;;;5014924;28;21029;-83
2021/12/23 05:03:20;;;;;;;19.17;13.07;;;0.80;99.90;;;;;;5013603;28;20175;-81
2021/12/23 05:05:46;;;;;;;20.97;13.40;;;0.80;99.90;;;;;;5014881;28;20410;-81
2021/12/23 05:08:13;;;;;;;21.23;13.30;;;0.70;99.90;;;;;;5013867;28;20967;-81
2021/12/23 05:10:39;;;;;;;20.67;12.77;;;0.70;99.90;;;;;;5013853;28;20846;-80
2021/12/23 05:13:05;;;;;;;22.70;14.40;;;0.70;99.90;;;;;;5014190;28;20427;-82
2021/12/23 05:15:31;;;;;;;22.30;13.60;;;0.60;99.90;;;;;;5012940;28;20774;-83
2021/12/23 05:17:58;;;;;;;25.97;13.40;;;0.50;99.90;;;;;;5014672;28;20495;-81
2021/12/23 05:20:24;;;;;;;27.00;13.83;;;0.50;99.90;;;;;;5012408;28;20463;-82
2021/12/23 05:22:50;;;;;;;31.37;14.63;;;0.40;99.90;;;;;;5014268;28;20427;-82
2021/12/23 05:25:16;;;;;;;26.23;13.73;;;0.40;99.90;;;;;;5012943;28;20417;-81
2021/12/23 05:27:43;;;;;;;24.67;13.47;;;0.40;99.90;;;;;;5012476;28;20427;-81
2021/12/23 05:30:14;;;;;;;27.60;16.03;;;0.50;99.90;;;;;;5012390;28;20450;-81
2021/12/23 05:32:43;;;;;;;18.90;12.40;;;0.40;99.90;;;;;;5012955;28;20432;-83
2021/12/23 05:35:14;;;;;;;21.47;14.80;;;0.40;99.90;;;;;;5014179;28;20858;-81
2021/12/23 05:37:40;;;;;;;24.00;13.93;;;0.40;99.90;;;;;;5014270;28;20400;-81
2021/12/23 05:40:08;;;;;;;22.23;13.43;;;0.40;99.90;;;;;;5013982;28;20503;-81
2021/12/23 05:42:34;;;;;;;28.57;15.07;;;0.40;99.90;;;;;;5014056;28;20422;-81
2021/12/23 05:44:59;;;;;;;22.63;13.33;;;0.40;99.90;;;;;;5014315;28;20552;-81
2021/12/23 05:47:25;;;;;;;19.93;12.73;;;0.40;99.90;;;;;;5012262;28;20635;-81
2021/12/23 05:49:51;;;;;;;25.00;14.03;;;0.40;99.90;;;;;;5013141;28;20205;-81
2021/12/23 05:52:17;;;;;;;24.60;15.67;;;0.50;99.90;;;;;;5013366;28;20220;-81
2021/12/23 05:54:42;;;;;;;28.80;14.83;;;0.50;99.90;;;;;;5013795;28;20415;-82
2021/12/23 05:57:08;;;;;;;24.90;15.27;;;0.50;99.90;;;;;;5012327;28;20235;-80
2021/12/23 05:59:34;;;;;;;19.40;13.70;;;0.60;99.90;;;;;;5012588;28;20217;-82
2021/12/23 06:02:05;;;;;;;26.50;15.20;;;0.60;99.90;;;;;;5013758;28;20200;-81
2021/12/23 06:04:31;;;;;;;22.70;13.33;;;0.60;99.90;;;;;;5012693;28;20990;-81
2021/12/23 06:06:57;;;;;;;25.73;14.80;;;0.60;99.90;;;;;;5013736;28;20507;-82
2021/12/23 06:09:22;;;;;;;19.83;12.37;;;0.70;99.90;;;;;;5012060;28;20472;-81
2021/12/23 06:11:48;;;;;;;23.10;14.73;;;0.70;99.90;;;;;;5012363;28;20185;-81
2021/12/23 06:14:14;;;;;;;24.63;14.70;;;0.80;99.90;;;;;;5028485;28;20191;-81
2021/12/23 06:16:39;;;;;;;21.73;13.90;;;0.90;99.90;;;;;;5013272;28;20189;-82
2021/12/23 06:19:05;;;;;;;26.87;15.73;;;0.90;99.90;;;;;;5012909;28;20207;-81
2021/12/23 06:21:31;;;;;;;24.23;13.80;;;0.90;99.90;;;;;;5012962;28;20193;-81
2021/12/23 06:23:58;;;;;;;23.20;15.03;;;1.00;99.90;;;;;;5011784;28;20185;-80
2021/12/23 06:26:24;;;;;;;21.77;15.00;;;1.00;99.90;;;;;;5024941;23;20532;-87
2021/12/23 06:28:50;;;;;;;22.53;14.10;;;1.00;99.90;;;;;;4970534;28;20714;-87
2021/12/23 06:31:15;;;;;;;25.50;14.80;;;1.00;99.90;;;;;;4971196;28;20426;-87
2021/12/23 06:33:41;;;;;;;23.10;14.20;;;1.00;99.90;;;;;;4971496;28;20221;-87
2021/12/23 06:36:07;;;;;;;25.20;15.20;;;1.00;99.90;;;;;;4971142;28;20202;-87
2021/12/23 06:38:35;;;;;;;32.93;14.53;;;1.00;99.90;;;;;;4969670;28;20208;-87
2021/12/23 06:41:01;;;;;;;24.97;15.23;;;1.00;99.90;;;;;;4971802;28;20931;-87
2021/12/23 06:43:27;;;;;;;20.63;12.97;;;1.10;99.90;;;;;;4971851;28;20427;-87
2021/12/23 06:45:53;;;;;;;24.93;16.33;;;1.10;99.90;;;;;;4971779;28;20822;-87
2021/12/23 06:48:19;;;;;;;24.97;14.53;;;1.10;99.90;;;;;;4971991;28;20434;-87
2021/12/23 06:50:45;;;;;;;24.70;14.93;;;1.10;99.90;;;;;;4971181;28;20419;-87
2021/12/23 06:53:13;;;;;;;25.37;14.50;;;1.20;99.90;;;;;;4971007;28;20576;-87
2021/12/23 06:55:41;;;;;;;25.00;15.03;;;1.10;99.90;;;;;;4971624;28;20447;-87
2021/12/23 06:58:07;;;;;;;20.83;14.93;;;1.20;99.90;;;;;;4971607;28;20514;-87
2021/12/23 07:00:33;;;;;;;22.77;14.27;;;1.20;99.90;;;;;;4971286;28;20461;-87
2021/12/23 07:02:58;;;;;;;25.83;14.73;;;1.20;99.90;;;;;;4971436;28;20446;-87
2021/12/23 07:05:24;;;;;;;24.67;14.07;;;1.30;99.90;;;;;;4971212;28;21007;-87
2021/12/23 07:07:56;;;;;;;24.20;15.40;;;1.20;99.90;;;;;;4971476;28;20647;-87
2021/12/23 07:10:27;;;;;;;17.37;12.07;;;1.30;99.90;;;;;;4971225;28;20802;-87
2021/12/23 07:12:55;;;;;;;26.00;14.27;;;1.30;99.90;;;;;;4971324;28;20454;-87
2021/12/23 07:15:23;;;;;;;23.47;14.90;;;1.40;99.90;;;;;;4971088;28;20794;-87
2021/12/23 07:17:49;;;;;;;27.17;15.00;;;1.30;99.90;;;;;;4971216;28;20478;-87
2021/12/23 07:20:15;;;;;;;24.33;14.50;;;1.30;99.90;;;;;;4970882;28;20419;-87
2021/12/23 07:22:41;;;;;;;22.17;13.73;;;1.30;99.90;;;;;;4971149;28;20184;-87
2021/12/23 07:25:07;;;;;;;26.03;14.27;;;1.40;99.90;;;;;;4971219;28;20187;-87
2021/12/23 07:27:33;;;;;;;26.43;14.83;;;1.30;99.90;;;;;;4971048;28;20439;-87
2021/12/23 07:29:59;;;;;;;20.90;13.90;;;1.30;99.90;;;;;;4970982;28;20427;-88
2021/12/23 07:32:25;;;;;;;27.67;14.67;;;1.30;99.90;;;;;;4970732;28;20434;-88
2021/12/23 07:34:50;;;;;;;24.57;14.07;;;1.30;99.90;;;;;;4970993;28;20247;-88
2021/12/23 07:37:16;;;;;;;24.83;15.00;;;1.30;99.90;;;;;;4971194;28;20708;-87
2021/12/23 07:39:42;;;;;;;24.37;14.70;;;1.30;99.90;;;;;;4970833;28;20214;-87
2021/12/23 07:42:14;;;;;;;27.93;14.57;;;1.40;99.90;;;;;;4970829;28;20213;-88
2021/12/23 07:44:40;;;;;;;24.70;13.27;;;1.40;99.90;;;;;;4971163;28;20207;-87
2021/12/23 07:47:06;;;;;;;21.70;13.37;;;1.40;99.90;;;;;;4970652;28;21050;-87
2021/12/23 07:49:31;;;;;;;23.40;15.43;;;1.40;99.90;;;;;;4970139;28;20197;-87
2021/12/23 07:51:57;;;;;;;26.67;15.00;;;1.50;99.90;;;;;;4970568;28;20432;-87
2021/12/23 07:54:23;;;;;;;25.17;13.10;;;1.50;99.90;;;;;;4970857;28;20304;-87
2021/12/23 07:56:49;;;;;;;21.90;15.53;;;1.50;99.90;;;;;;4970467;28;20699;-87
2021/12/23 07:59:15;;;;;;;30.10;15.47;;;1.50;99.90;;;;;;4970670;28;20495;-86
2021/12/23 08:01:40;;;;;;;31.53;15.53;;;1.50;99.90;;;;;;4970648;28;20426;-87
2021/12/23 08:04:06;;;;;;;28.13;16.00;;;1.50;99.90;;;;;;4970303;28;20583;-87
2021/12/23 08:06:32;;;;;;;28.63;16.20;;;1.50;99.90;;;;;;4970279;28;20630;-87
2021/12/23 08:08:58;;;;;;;26.17;15.53;;;1.50;99.90;;;;;;4970438;28;20189;-87
2021/12/23 08:11:23;;;;;;;20.20;13.67;;;1.50;99.90;;;;;;4970075;28;20193;-87
2021/12/23 08:13:49;;;;;;;25.30;13.37;;;1.50;99.90;;;;;;4970415;28;20184;-86
2021/12/23 08:16:15;;;;;;;25.33;15.00;;;1.60;99.90;;;;;;4970186;28;20716;-87
2021/12/23 08:18:40;;;;;;;26.43;14.87;;;1.60;99.90;;;;;;4970283;28;20219;-88
2021/12/23 08:21:06;;;;;;;27.43;15.17;;;1.60;99.90;;;;;;4970283;28;20203;-87
2021/12/23 08:23:32;;;;;;;27.80;15.93;;;1.60;99.90;;;;;;4970097;28;20771;-87
2021/12/23 08:26:03;;;;;;;25.33;14.27;;;1.60;99.90;;;;;;4969882;28;20305;-87
2021/12/23 08:28:29;;;;;;;26.80;13.50;;;1.60;99.90;;;;;;4970017;28;20183;-87
2021/12/23 08:30:55;;;;;;;25.03;14.70;;;1.70;99.90;;;;;;4969672;28;20571;-87
2021/12/23 08:33:21;;;;;;;23.23;15.43;;;1.70;99.90;;;;;;4969746;28;20518;-87
2021/12/23 08:35:46;;;;;;;22.10;14.30;;;1.80;99.90;;;;;;4969620;28;20254;-87
2021/12/23 08:38:12;;;;;;;24.00;13.13;;;1.80;99.90;;;;;;4969882;28;20274;-87
2021/12/23 08:40:38;;;;;;;30.03;15.67;;;1.80;99.90;;;;;;4969390;28;20458;-87
2021/12/23 08:43:03;;;;;;;24.30;14.43;;;1.90;99.90;;;;;;4969502;28;20179;-87
2021/12/23 08:45:31;;;;;;;22.20;14.23;;;2.00;99.90;;;;;;4969801;28;20203;-87
2021/12/23 08:47:58;;;;;;;25.80;14.40;;;2.00;99.90;;;;;;4969689;28;20179;-87
2021/12/23 08:50:26;;;;;;;22.83;14.10;;;2.00;99.90;;;;;;4969229;28;20749;-87
2021/12/23 08:52:53;;;;;;;25.47;14.40;;;2.00;99.90;;;;;;4969235;28;20424;-87
2021/12/23 08:55:19;;;;;;;22.77;15.83;;;2.00;99.90;;;;;;4969558;28;20416;-87
2021/12/23 08:57:45;;;;;;;26.30;14.40;;;2.00;99.90;;;;;;4969567;28;20432;-87
2021/12/23 09:00:15;;;;;;;20.70;13.83;;;2.00;99.90;;;;;;4969315;28;20482;-89
2021/12/23 09:02:41;;;;;;;27.03;14.63;;;2.00;99.90;;;;;;4968268;28;20266;-87
2021/12/23 09:05:07;;;;;;;21.93;14.30;;;2.10;99.90;;;;;;4969359;28;20928;-87
2021/12/23 09:07:33;;;;;;;21.93;13.10;;;2.10;99.90;;;;;;4981580;28;20442;-87
2021/12/23 09:09:59;;;;;;;23.90;15.27;;;2.10;99.90;;;;;;4973599;28;20429;-87
2021/12/23 09:12:25;;;;;;;21.27;14.93;;;2.20;99.90;;;;;;4972011;28;20455;-88
2021/12/23 09:14:54;;;;;;;28.00;16.33;;;2.30;99.90;;;;;;4972087;28;20513;-88
2021/12/23 09:17:20;;;;;;;27.73;15.77;;;2.30;99.90;;;;;;4972291;28;20502;-88
2021/12/23 09:19:46;;;;;;;25.87;15.40;;;2.30;99.90;;;;;;4971540;28;20465;-88
2021/12/23 09:22:12;;;;;;;22.13;13.80;;;2.40;99.90;;;;;;4980672;28;20451;-87
2021/12/23 09:24:41;;;;;;;27.57;16.30;;;2.50;99.90;;;;;;4989813;28;20423;-87
2021/12/23 09:27:36;;;;;;;20.57;14.53;;;2.60;99.90;;;;;;4991211;28;20237;-88
2021/12/23 09:32:52;;;;;;;23.80;15.20;;;2.80;99.90;;;;;;4993515;28;20793;-88
2021/12/23 09:35:21;;;;;;;20.53;14.07;;;2.90;99.90;;;;;;4991895;28;20455;-88
2021/12/23 09:37:47;;;;;;;24.90;16.40;;;3.00;99.90;;;;;;4990949;28;20459;-88
2021/12/23 09:40:14;;;;;;;28.00;15.97;;;3.20;99.90;;;;;;4990991;28;20783;-90
2021/12/23 09:42:41;;;;;;;21.97;14.50;;;3.30;99.90;;;;;;4991510;28;20421;-90
2021/12/23 09:45:11;;;;;;;24.20;14.87;;;3.40;99.90;;;;;;4991321;28;20424;-89
2021/12/23 09:47:37;;;;;;;19.80;14.23;;;3.40;99.90;;;;;;4991444;28;20929;-89
2021/12/23 09:50:09;;;;;;;27.33;14.27;;;3.50;99.90;;;;;;4991578;28;20435;-89
2021/12/23 09:52:39;;;;;;;25.03;15.43;;;3.50;99.90;;;;;;4991240;28;20420;-88
2021/12/23 09:55:06;;;;;;;24.93;14.97;;;3.40;99.90;;;;;;4991093;28;20515;-89
2021/12/23 09:57:32;;;;;;;24.80;14.83;;;3.50;99.90;;;;;;4991306;28;20455;-87
2021/12/23 09:59:59;;;;;;;22.47;14.17;;;3.50;99.90;;;;;;4990965;28;20463;-87
2021/12/23 10:02:24;;;;;;;23.33;13.93;;;3.50;99.90;;;;;;4990771;28;20189;-87
2021/12/23 10:04:50;;;;;;;26.93;14.87;;;3.70;99.90;;;;;;4991011;28;20477;-86
2021/12/23 10:07:17;;;;;;;24.07;14.30;;;3.80;99.90;;;;;;4991266;28;20224;-87
2021/12/23 10:09:57;;;;;;;25.53;14.67;;;4.00;99.90;;;;;;4990931;28;20204;-86
2021/12/23 10:33:13;;;;;;;22.40;13.80;;;4.20;99.90;;;;;;4996188;28;20409;-88
2021/12/23 10:38:20;;;;;;;21.80;15.13;;;4.20;99.90;;;;;;4976196;28;20977;-89
2021/12/23 10:40:49;;;;;;;25.80;14.30;;;4.30;99.90;;;;;;4970226;28;20438;-89
2021/12/23 10:43:28;;;;;;;28.03;15.83;;;4.40;99.90;;;;;;4974787;28;20417;-89
2021/12/23 10:45:58;;;;;;;24.17;13.93;;;4.40;99.90;;;;;;4975006;28;20981;-89
2021/12/23 10:48:28;;;;;;;24.90;15.40;;;4.50;99.90;;;;;;4974831;28;20518;-88
2021/12/23 10:51:03;;;;;;;22.67;13.60;;;4.50;99.90;;;;;;4974482;28;20537;-89
2021/12/23 10:59:06;;;;;;;27.27;14.90;;;4.40;99.90;;;;;;4976081;28;20468;-90
2021/12/23 11:01:33;;;;;;;23.10;14.40;;;4.30;99.90;;;;;;4974613;28;20414;-89
2021/12/23 11:04:05;;;;;;;24.03;13.90;;;4.40;99.90;;;;;;4974455;28;20432;-89
2021/12/23 11:06:33;;;;;;;23.70;13.90;;;4.40;99.90;;;;;;4974553;28;20437;-89
2021/12/23 11:09:25;;;;;;;26.60;14.47;;;4.40;99.90;;;;;;4969648;28;20504;-89
2021/12/23 11:27:24;;;;;;;26.17;13.93;;;4.50;99.90;;;;;;4975162;28;20672;-89
2021/12/23 11:37:47;;;;;;;25.30;14.40;;;4.80;99.90;;;;;;4975343;28;20441;-89
2021/12/23 11:40:27;;;;;;;20.70;13.70;;;4.80;99.90;;;;;;4973616;28;20459;-90
2021/12/23 11:45:25;;;;;;;23.63;14.83;;;4.90;99.90;;;;;;4975787;28;20391;-89
2021/12/23 11:47:52;;;;;;;23.87;14.30;;;4.90;99.90;;;;;;4974057;28;20442;-89
2021/12/23 11:50:29;;;;;;;25.27;14.67;;;4.90;99.90;;;;;;4973811;28;20185;-89
2021/12/23 11:52:55;;;;;;;24.10;14.73;;;4.90;99.90;;;;;;4974064;28;20422;-89
2021/12/23 11:55:20;;;;;;;31.70;16.20;;;4.90;99.90;;;;;;4974023;28;20946;-89
2021/12/23 11:57:48;;;;;;;25.00;14.53;;;4.90;99.90;;;;;;4974036;28;20248;-89
2021/12/23 12:02:41;;;;;;;24.80;14.70;;;5.10;99.90;;;;;;4975047;28;20903;-89
2021/12/23 12:05:15;;;;;;;21.33;13.07;;;5.20;99.90;;;;;;4975123;28;20424;-90
2021/12/23 12:07:41;;;;;;;24.50;14.50;;;5.20;99.90;;;;;;4973694;28;20430;-89
2021/12/23 12:10:10;;;;;;;26.53;14.47;;;5.20;99.90;;;;;;4971667;28;20447;-89
2021/12/23 12:12:59;;;;;;;21.23;14.67;;;5.10;99.90;;;;;;4972571;28;20427;-89
2021/12/23 12:15:50;;;;;;;20.53;13.47;;;5.10;99.90;;;;;;4973360;28;20432;-89
2021/12/23 12:18:19;;;;;;;23.37;13.27;;;5.20;99.90;;;;;;4973063;28;20423;-89
2021/12/23 12:20:50;;;;;;;24.63;14.90;;;5.20;99.90;;;;;;4972872;28;20422;-89
2021/12/23 12:23:33;;;;;;;21.53;13.67;;;5.20;99.90;;;;;;4970391;28;20429;-89
2021/12/23 12:26:03;;;;;;;25.20;13.80;;;5.20;99.90;;;;;;4989034;28;20559;-90
2021/12/23 12:28:36;;;;;;;27.63;14.47;;;5.30;99.90;;;;;;4973028;28;20925;-89
2021/12/23 12:31:13;;;;;;;23.43;14.60;;;5.40;99.90;;;;;;4997305;28;20430;-89
2021/12/23 12:33:41;;;;;;;25.30;14.77;;;5.40;99.90;;;;;;4989607;28;20469;-89
2021/12/23 12:36:14;;;;;;;21.77;14.10;;;5.40;99.90;;;;;;5024067;23;20499;-78
2021/12/23 12:38:47;;;;;;;24.03;13.77;;;5.40;99.90;;;;;;4965050;28;20487;-79
2021/12/23 12:41:27;;;;;;;25.70;15.87;;;5.40;99.90;;;;;;4935280;29;20468;-79
2021/12/23 12:44:02;;;;;;;27.93;15.60;;;5.50;99.90;;;;;;4937475;29;20503;-79
2021/12/23 12:46:44;;;;;;;23.63;13.60;;;5.50;99.90;;;;;;4939211;29;20604;-79
2021/12/23 12:49:23;;;;;;;24.00;14.47;;;5.50;99.90;;;;;;4938059;29;20751;-80
2021/12/23 12:51:51;;;;;;;25.67;15.33;;;5.60;99.90;;;;;;4938641;29;20406;-80
2021/12/23 12:54:26;;;;;;;20.40;13.90;;;5.60;99.90;;;;;;4958537;28;20425;-78
2021/12/23 12:56:56;;;;;;;25.30;14.10;;;5.60;99.90;;;;;;4958367;28;20443;-79
2021/12/23 12:59:29;;;;;;;25.87;13.97;;;5.70;99.90;;;;;;4956362;28;20464;-82
2021/12/23 13:01:56;;;;;;;20.30;12.80;;;5.90;99.90;;;;;;4971645;28;20449;-82
2021/12/23 13:04:30;;;;;;;26.87;14.60;;;6.00;99.90;;;;;;4959480;28;20503;-82
2021/12/23 13:06:58;;;;;;;22.70;14.70;;;6.10;99.90;;;;;;4974971;28;20442;-83
2021/12/23 13:09:29;;;;;;;20.23;12.90;;;6.30;99.90;;;;;;4935850;29;20926;-83
2021/12/23 13:11:58;;;;;;;27.20;14.73;;;6.50;99.90;;;;;;4967281;28;20415;-83
2021/12/23 13:14:48;;;;;;;21.63;14.20;;;6.60;99.90;;;;;;4937081;29;20923;-83
2021/12/23 13:17:13;;;;;;;24.87;14.40;;;6.70;99.90;;;;;;4936373;29;20788;-82
2021/12/23 13:19:40;;;;;;;24.97;13.40;;;6.50;99.90;;;;;;4935994;29;20711;-84
2021/12/23 13:22:11;;;;;;;29.27;15.07;;;6.50;99.90;;;;;;4951025;29;20195;-83
2021/12/23 13:24:36;;;;;;;23.47;13.93;;;6.40;99.90;;;;;;4950842;29;20988;-82
2021/12/23 13:27:02;;;;;;;22.20;13.63;;;6.30;99.90;;;;;;4950572;29;20518;-82
2021/12/23 13:29:30;;;;;;;25.53;15.00;;;6.20;99.90;;;;;;4950788;29;20214;-84
2021/12/23 13:31:59;;;;;;;23.00;13.50;;;6.20;99.90;;;;;;4950632;29;20457;-83
2021/12/23 13:34:28;;;;;;;23.43;14.37;;;6.20;99.90;;;;;;4936075;29;20509;-84
2021/12/23 13:37:02;;;;;;;21.60;13.50;;;6.20;99.90;;;;;;4950661;29;20449;-83
2021/12/23 13:39:31;;;;;;;23.63;15.20;;;6.10;99.90;;;;;;4951807;28;20529;-84
2021/12/23 13:42:06;;;;;;;30.52;18.10;;;6.10;99.90;;;;;;4941649;29;20418;-82
2021/12/23 13:44:35;;;;;;;25.00;16.60;;;6.10;99.90;;;;;;4977877;28;20224;-82
2021/12/23 13:47:15;;;;;;;25.70;15.90;;;6.10;99.90;;;;;;4951104;28;20813;-83